Time;durP1;ratioP1;P1;durP2;ratioP2;P2;SDS_P1;SDS_P2;PMS_P1;PMS_P2;Temp;Humidity;BMP_temperature;BMP_pressure;BME280_temperature;BME280_humidity;BME280_pressure;Samples;Min_cycle;Max_cycle;Signal;HPM_P1;HPM_P2
2021/04/25 00:02:09;;;;;;;26.85;25.05;;;10.50;60.40;;;;;;5095060;28;20227;-77
2021/04/25 00:04:35;;;;;;;26.15;24.45;;;10.40;60.90;;;;;;5094747;28;20257;-76
2021/04/25 00:07:03;;;;;;;27.23;25.42;;;10.50;60.80;;;;;;5094508;28;20276;-77
2021/04/25 00:09:29;;;;;;;27.13;25.42;;;10.50;60.80;;;;;;5094622;28;20653;-77
2021/04/25 00:11:55;;;;;;;26.25;24.52;;;10.50;60.80;;;;;;5094586;28;20310;-77
2021/04/25 00:14:23;;;;;;;26.63;24.92;;;10.50;60.90;;;;;;5093336;28;20663;-77
2021/04/25 00:16:49;;;;;;;26.63;24.75;;;10.50;61.00;;;;;;5094452;28;20200;-77
2021/04/25 00:19:16;;;;;;;26.20;24.60;;;10.40;60.90;;;;;;5094689;28;20227;-77
2021/04/25 00:21:42;;;;;;;27.30;25.30;;;10.30;61.30;;;;;;5094664;28;20241;-77
2021/04/25 00:24:09;;;;;;;27.05;25.35;;;10.30;61.40;;;;;;5094102;28;20290;-77
2021/04/25 00:26:35;;;;;;;26.92;25.13;;;10.20;61.70;;;;;;5093940;28;20571;-77
2021/04/25 00:29:02;;;;;;;26.92;25.25;;;10.20;61.60;;;;;;5094373;28;20198;-77
2021/04/25 00:31:29;;;;;;;26.98;25.08;;;10.30;61.50;;;;;;5094592;28;20311;-77
2021/04/25 00:33:56;;;;;;;27.13;25.20;;;10.30;61.90;;;;;;5094795;28;20197;-76
2021/04/25 00:36:22;;;;;;;26.38;24.70;;;10.20;61.50;;;;;;5099805;28;20201;-77
2021/04/25 00:38:49;;;;;;;27.50;25.67;;;10.20;61.80;;;;;;5097768;28;20268;-76
2021/04/25 00:41:15;;;;;;;25.45;23.95;;;10.20;61.80;;;;;;5094270;28;20294;-77
2021/04/25 00:43:42;;;;;;;26.38;24.63;;;10.30;61.60;;;;;;5094137;28;20207;-77
2021/04/25 00:46:08;;;;;;;26.75;25.13;;;10.20;61.60;;;;;;5093782;28;20201;-77
2021/04/25 00:48:35;;;;;;;26.90;25.17;;;10.30;61.60;;;;;;5094016;28;20242;-77
2021/04/25 00:51:02;;;;;;;26.17;24.60;;;10.20;61.50;;;;;;5093967;28;20223;-77
2021/04/25 00:53:29;;;;;;;26.42;24.58;;;10.20;61.50;;;;;;5093992;28;20199;-77
2021/04/25 00:55:56;;;;;;;26.92;25.23;;;10.20;61.70;;;;;;5093320;28;20676;-76
2021/04/25 00:58:22;;;;;;;26.48;24.77;;;10.10;61.90;;;;;;5094040;28;20278;-76
2021/04/25 01:00:49;;;;;;;26.02;24.25;;;10.10;62.50;;;;;;5093778;28;20251;-78
2021/04/25 01:03:18;;;;;;;27.60;25.60;;;10.10;62.10;;;;;;5093953;28;20199;-77
2021/04/25 01:05:45;;;;;;;27.25;25.55;;;10.00;62.30;;;;;;5093293;28;20199;-77
2021/04/25 01:08:12;;;;;;;26.70;25.05;;;9.90;62.50;;;;;;5093719;28;20297;-76
2021/04/25 01:10:39;;;;;;;26.40;24.80;;;10.00;62.30;;;;;;5093722;28;20225;-77
2021/04/25 01:13:05;;;;;;;26.85;24.85;;;10.10;62.20;;;;;;5094376;28;20279;-77
2021/04/25 01:15:32;;;;;;;27.55;25.88;;;10.00;62.40;;;;;;5093858;28;20259;-77
2021/04/25 01:17:59;;;;;;;27.33;25.38;;;9.90;62.80;;;;;;5094305;28;20252;-77
2021/04/25 01:20:25;;;;;;;27.27;25.35;;;9.80;62.80;;;;;;5096846;28;20222;-76
2021/04/25 01:22:53;;;;;;;25.75;24.25;;;9.80;63.00;;;;;;5097985;28;20230;-77
2021/04/25 01:25:21;;;;;;;26.42;24.63;;;9.90;62.80;;;;;;5101845;28;20232;-77
2021/04/25 01:27:47;;;;;;;25.95;24.23;;;9.80;62.80;;;;;;5094000;28;20683;-77
2021/04/25 01:30:17;;;;;;;27.52;25.50;;;9.80;63.00;;;;;;5093557;28;20227;-77
2021/04/25 01:32:43;;;;;;;27.63;25.75;;;9.70;63.20;;;;;;5093068;28;20274;-76
2021/04/25 01:35:11;;;;;;;28.75;26.23;;;9.50;63.70;;;;;;5092929;28;20294;-77
2021/04/25 01:37:38;;;;;;;26.70;25.20;;;9.50;63.90;;;;;;5092576;28;20202;-77
2021/04/25 01:40:07;;;;;;;27.30;25.30;;;9.40;64.30;;;;;;5093089;28;20211;-77
2021/04/25 01:42:34;;;;;;;26.50;24.90;;;9.30;64.50;;;;;;5093121;28;20286;-77
2021/04/25 01:45:01;;;;;;;27.88;26.17;;;9.30;64.70;;;;;;5092938;28;20622;-77
2021/04/25 01:47:27;;;;;;;27.95;25.70;;;9.40;64.50;;;;;;5092292;28;20290;-77
2021/04/25 01:49:54;;;;;;;27.58;25.77;;;9.30;64.60;;;;;;5092771;28;20207;-77
2021/04/25 01:52:20;;;;;;;27.08;24.90;;;9.30;64.60;;;;;;5092895;28;20199;-79
2021/04/25 01:54:47;;;;;;;27.73;25.98;;;9.30;64.70;;;;;;5092912;28;20196;-77
2021/04/25 01:57:14;;;;;;;27.65;25.95;;;9.30;64.70;;;;;;5092152;28;20826;-77
2021/04/25 01:59:41;;;;;;;26.27;24.50;;;9.20;64.90;;;;;;5092483;28;20202;-78
2021/04/25 02:02:07;;;;;;;28.10;26.10;;;9.20;65.00;;;;;;5092532;28;20196;-77
2021/04/25 02:04:34;;;;;;;27.77;26.05;;;9.30;65.00;;;;;;5092658;28;20223;-77
2021/04/25 02:07:00;;;;;;;28.60;26.65;;;9.20;65.10;;;;;;5092097;28;20247;-77
2021/04/25 02:09:27;;;;;;;28.20;26.40;;;9.20;65.10;;;;;;5092593;28;20294;-77
2021/04/25 02:11:53;;;;;;;29.23;27.02;;;9.20;65.00;;;;;;5092276;28;20830;-77
2021/04/25 02:14:20;;;;;;;28.30;26.25;;;9.10;65.30;;;;;;5092610;28;20290;-77
2021/04/25 02:16:47;;;;;;;28.27;26.08;;;9.10;65.50;;;;;;5091718;28;20278;-77
2021/04/25 02:19:13;;;;;;;27.27;25.40;;;9.00;65.90;;;;;;5092431;28;20191;-77
2021/04/25 02:21:39;;;;;;;27.45;25.73;;;9.00;66.10;;;;;;5092431;28;20576;-77
2021/04/25 02:24:07;;;;;;;27.23;25.60;;;9.00;66.10;;;;;;5091843;28;20282;-77
2021/04/25 02:26:33;;;;;;;27.48;25.77;;;9.10;65.80;;;;;;5091916;28;20285;-77
2021/04/25 02:28:59;;;;;;;26.90;25.30;;;9.10;65.70;;;;;;5092287;28;20195;-77
2021/04/25 02:31:27;;;;;;;27.33;25.70;;;9.10;65.60;;;;;;5092267;28;20236;-77
2021/04/25 02:33:53;;;;;;;27.23;25.50;;;9.10;65.70;;;;;;5092199;28;20201;-77
2021/04/25 02:36:19;;;;;;;28.40;26.58;;;9.00;65.90;;;;;;5092017;28;20281;-77
2021/04/25 02:38:46;;;;;;;27.75;25.95;;;8.90;66.20;;;;;;5094902;28;20281;-77
2021/04/25 02:41:12;;;;;;;27.40;25.60;;;8.80;66.30;;;;;;5096497;28;20221;-77
2021/04/25 02:43:38;;;;;;;27.27;25.58;;;8.90;66.10;;;;;;5096308;28;20286;-77
2021/04/25 02:46:05;;;;;;;26.70;24.90;;;8.80;66.40;;;;;;5095800;28;20191;-77
2021/04/25 02:48:32;;;;;;;27.15;25.45;;;8.80;66.40;;;;;;5096130;28;20207;-77
2021/04/25 02:50:58;;;;;;;28.13;26.42;;;8.70;66.40;;;;;;5096220;28;20314;-77
2021/04/25 02:53:25;;;;;;;27.52;25.83;;;8.70;66.80;;;;;;5096076;28;20195;-77
2021/04/25 02:55:51;;;;;;;28.05;26.02;;;8.60;67.10;;;;;;5095597;28;20553;-77
2021/04/25 02:58:18;;;;;;;27.70;25.80;;;8.70;67.20;;;;;;5095993;28;20202;-77
2021/04/25 03:00:44;;;;;;;30.20;27.65;;;8.70;66.90;;;;;;5096185;28;20302;-77
2021/04/25 03:03:11;;;;;;;27.90;25.98;;;8.70;66.90;;;;;;5096096;28;20317;-77
2021/04/25 03:05:38;;;;;;;28.52;26.52;;;8.60;66.90;;;;;;5095384;28;20203;-77
2021/04/25 03:08:05;;;;;;;29.42;27.10;;;8.50;67.10;;;;;;5095884;28;20747;-77
2021/04/25 03:10:31;;;;;;;27.67;25.98;;;8.50;67.40;;;;;;5095765;28;20219;-77
2021/04/25 03:12:58;;;;;;;28.98;27.10;;;8.40;67.50;;;;;;5095819;28;20195;-77
2021/04/25 03:15:24;;;;;;;26.55;24.95;;;8.30;67.90;;;;;;5095579;28;20191;-76
2021/04/25 03:17:51;;;;;;;28.48;26.33;;;8.40;67.70;;;;;;5095480;28;20325;-77
2021/04/25 03:20:21;;;;;;;28.77;26.80;;;8.40;67.50;;;;;;5095682;28;20237;-77
2021/04/25 03:22:48;;;;;;;27.15;25.45;;;8.40;68.10;;;;;;5095136;28;20233;-77
2021/04/25 03:25:15;;;;;;;28.80;26.92;;;8.40;68.50;;;;;;5095664;28;20202;-77
2021/04/25 03:27:42;;;;;;;28.23;26.25;;;8.40;68.50;;;;;;5094871;28;20574;-77
2021/04/25 03:30:11;;;;;;;27.77;25.95;;;8.30;73.60;;;;;;5095499;28;20223;-77
2021/04/25 03:32:38;;;;;;;27.15;25.45;;;8.30;71.50;;;;;;5095571;28;20281;-77
2021/04/25 03:35:06;;;;;;;28.00;25.85;;;8.20;69.90;;;;;;5095372;28;20668;-77
2021/04/25 03:37:32;;;;;;;27.98;25.77;;;8.20;69.60;;;;;;5094896;28;20226;-77
2021/04/25 03:40:00;;;;;;;28.40;26.40;;;8.20;69.60;;;;;;5095271;28;20195;-77
2021/04/25 03:42:26;;;;;;;26.92;25.23;;;8.10;69.90;;;;;;5095346;28;20332;-77
2021/04/25 03:44:53;;;;;;;26.70;25.10;;;8.00;69.90;;;;;;5095422;28;20286;-77
2021/04/25 03:47:19;;;;;;;27.83;26.13;;;8.00;70.80;;;;;;5094635;28;20212;-77
2021/04/25 03:49:45;;;;;;;27.80;25.88;;;8.00;70.40;;;;;;5094738;28;20238;-77
2021/04/25 03:52:12;;;;;;;27.35;25.48;;;7.90;70.40;;;;;;5094876;28;20227;-77
2021/04/25 03:54:38;;;;;;;26.77;25.25;;;7.80;70.70;;;;;;5094990;28;20202;-77
2021/04/25 03:57:07;;;;;;;27.55;25.75;;;7.90;70.40;;;;;;5094393;28;20201;-77
2021/04/25 03:59:33;;;;;;;28.30;26.40;;;7.80;70.40;;;;;;5095080;28;20195;-77
2021/04/25 04:02:00;;;;;;;28.85;26.75;;;7.80;70.40;;;;;;5094827;28;20215;-76
2021/04/25 04:04:26;;;;;;;29.38;27.48;;;7.80;70.40;;;;;;5095088;28;20954;-77
2021/04/25 04:06:52;;;;;;;27.85;26.15;;;7.70;70.60;;;;;;5094219;28;20193;-76
2021/04/25 04:09:19;;;;;;;27.73;25.83;;;7.70;70.80;;;;;;5094907;28;20201;-76
2021/04/25 04:11:46;;;;;;;28.15;26.25;;;7.80;70.70;;;;;;5094661;28;20229;-76
2021/04/25 04:14:13;;;;;;;28.63;26.60;;;7.70;70.80;;;;;;5094660;28;20233;-77
2021/04/25 04:16:40;;;;;;;28.13;26.23;;;7.70;71.10;;;;;;5094417;28;20204;-77
2021/04/25 04:19:06;;;;;;;28.38;26.40;;;7.60;71.30;;;;;;5095003;28;20199;-76
2021/04/25 04:21:33;;;;;;;29.40;27.40;;;7.60;73.70;;;;;;5096336;28;20215;-77
2021/04/25 04:24:00;;;;;;;28.08;26.08;;;7.50;74.60;;;;;;5104496;28;20219;-77
2021/04/25 04:26:26;;;;;;;28.15;26.45;;;7.50;73.60;;;;;;5100988;28;20484;-77
2021/04/25 04:28:52;;;;;;;28.50;26.60;;;7.50;72.80;;;;;;5102831;28;20196;-78
2021/04/25 04:31:20;;;;;;;28.83;27.02;;;7.60;72.20;;;;;;5100328;28;20308;-76
2021/04/25 04:33:46;;;;;;;30.50;28.20;;;7.60;72.00;;;;;;5095406;28;20710;-76
2021/04/25 04:36:12;;;;;;;27.33;25.52;;;7.50;72.00;;;;;;5095440;28;20287;-76
2021/04/25 04:38:39;;;;;;;28.98;26.92;;;7.60;72.00;;;;;;5094960;28;20278;-77
2021/04/25 04:41:05;;;;;;;28.42;26.63;;;7.60;72.80;;;;;;5095169;28;20215;-77
2021/04/25 04:43:31;;;;;;;27.65;25.83;;;7.70;71.70;;;;;;5095373;28;20201;-77
2021/04/25 04:45:58;;;;;;;28.20;26.27;;;7.70;71.60;;;;;;5094254;28;20281;-77
2021/04/25 04:48:25;;;;;;;30.80;27.88;;;7.70;71.60;;;;;;5094359;28;20269;-77
2021/04/25 04:50:51;;;;;;;27.52;25.73;;;7.60;71.50;;;;;;5094162;28;20230;-77
2021/04/25 04:53:18;;;;;;;27.85;26.08;;;7.60;71.90;;;;;;5094375;28;20292;-77
2021/04/25 04:55:44;;;;;;;28.88;26.83;;;7.70;75.80;;;;;;5093537;28;20202;-76
2021/04/25 04:58:11;;;;;;;28.20;26.30;;;7.70;73.20;;;;;;5094057;28;20287;-77
2021/04/25 05:00:37;;;;;;;29.42;27.48;;;7.80;71.50;;;;;;5093020;28;20305;-76
2021/04/25 05:03:04;;;;;;;29.13;27.05;;;7.90;71.10;;;;;;5094085;28;20286;-76
2021/04/25 05:05:31;;;;;;;29.25;27.17;;;7.90;70.80;;;;;;5093401;28;20726;-76
2021/04/25 05:07:58;;;;;;;27.90;26.10;;;8.00;70.60;;;;;;5093984;28;20280;-77
2021/04/25 05:10:24;;;;;;;27.85;26.00;;;8.10;70.40;;;;;;5093540;28;20221;-77
2021/04/25 05:12:51;;;;;;;28.88;26.90;;;8.20;70.00;;;;;;5094002;28;20285;-77
2021/04/25 05:15:17;;;;;;;29.35;27.20;;;8.30;69.60;;;;;;5093849;28;20198;-77
2021/04/25 05:17:43;;;;;;;28.38;26.58;;;8.30;69.60;;;;;;5093208;28;20204;-77
2021/04/25 05:20:11;;;;;;;28.80;26.70;;;8.30;69.50;;;;;;5093397;28;20772;-77
2021/04/25 05:22:39;;;;;;;29.15;26.83;;;8.40;69.30;;;;;;5093090;28;20668;-77
2021/04/25 05:25:07;;;;;;;28.67;26.45;;;8.40;69.30;;;;;;5093581;28;20195;-76
2021/04/25 05:27:33;;;;;;;29.52;27.52;;;8.50;69.00;;;;;;5092860;28;20282;-76
2021/04/25 05:30:00;;;;;;;29.13;26.98;;;8.60;68.80;;;;;;5093461;28;20218;-76
2021/04/25 05:32:26;;;;;;;28.35;26.58;;;8.60;68.80;;;;;;5093465;28;20652;-76
2021/04/25 05:34:53;;;;;;;28.25;26.45;;;8.70;68.60;;;;;;5093631;28;20199;-76
2021/04/25 05:37:19;;;;;;;28.95;27.02;;;8.90;68.20;;;;;;5093079;28;20593;-77
2021/04/25 05:39:46;;;;;;;28.90;26.80;;;9.00;67.80;;;;;;5093142;28;20199;-76
2021/04/25 05:42:12;;;;;;;29.75;27.45;;;9.00;67.70;;;;;;5093395;28;20299;-77
2021/04/25 05:44:39;;;;;;;29.10;26.60;;;8.90;67.90;;;;;;5093059;28;20289;-77
2021/04/25 05:47:06;;;;;;;29.60;27.25;;;8.90;68.00;;;;;;5092410;28;20211;-77
2021/04/25 05:49:32;;;;;;;29.30;27.05;;;9.00;67.30;;;;;;5093166;28;20196;-77
2021/04/25 05:51:59;;;;;;;29.27;27.27;;;9.10;67.40;;;;;;5093022;28;20231;-77
2021/04/25 05:54:25;;;;;;;29.38;27.25;;;8.80;67.60;;;;;;5092908;28;20565;-77
2021/04/25 05:56:52;;;;;;;31.23;28.80;;;8.80;67.90;;;;;;5092417;28;20191;-77
2021/04/25 05:59:19;;;;;;;29.80;27.73;;;8.80;67.90;;;;;;5093018;28;20234;-77
2021/04/25 06:01:45;;;;;;;32.40;29.10;;;9.00;67.60;;;;;;5092880;28;20211;-77
2021/04/25 06:04:12;;;;;;;29.33;27.27;;;9.10;67.10;;;;;;5093046;28;20286;-77
2021/04/25 06:06:39;;;;;;;31.67;29.05;;;9.10;67.10;;;;;;5092443;28;20198;-77
2021/04/25 06:09:06;;;;;;;30.13;27.75;;;9.20;66.90;;;;;;5092874;28;20560;-77
2021/04/25 06:11:34;;;;;;;29.83;27.95;;;9.10;67.20;;;;;;5092542;28;20361;-77
2021/04/25 06:14:01;;;;;;;29.98;28.02;;;9.10;67.20;;;;;;5093597;28;20679;-77
2021/04/25 06:16:28;;;;;;;32.03;29.58;;;9.30;66.80;;;;;;5095812;28;20735;-77
2021/04/25 06:18:54;;;;;;;34.55;31.85;;;9.20;67.00;;;;;;5092603;28;20533;-77
2021/04/25 06:21:21;;;;;;;36.22;32.75;;;9.10;67.30;;;;;;5092736;28;20301;-77
2021/04/25 06:23:48;;;;;;;31.13;28.48;;;9.30;66.80;;;;;;5092376;28;20695;-77
2021/04/25 06:26:14;;;;;;;31.42;29.13;;;9.30;66.70;;;;;;5095409;28;20199;-76
2021/04/25 06:28:41;;;;;;;31.20;28.95;;;9.20;67.30;;;;;;5100335;28;20290;-77
2021/04/25 06:31:08;;;;;;;30.50;28.08;;;9.10;67.50;;;;;;5097921;28;20685;-77
2021/04/25 06:33:35;;;;;;;33.83;30.48;;;9.00;68.00;;;;;;5100475;28;20194;-77
2021/04/25 06:36:01;;;;;;;30.63;28.52;;;9.10;67.80;;;;;;5099056;28;20195;-77
2021/04/25 06:38:28;;;;;;;31.15;28.73;;;9.30;67.40;;;;;;5093000;28;20196;-77
2021/04/25 06:40:54;;;;;;;30.95;28.45;;;9.20;67.30;;;;;;5092147;28;20240;-77
2021/04/25 06:43:20;;;;;;;33.42;30.60;;;9.30;67.30;;;;;;5092173;28;20226;-78
2021/04/25 06:45:47;;;;;;;30.90;28.70;;;9.40;67.20;;;;;;5091560;28;20301;-77
2021/04/25 06:48:15;;;;;;;36.35;30.13;;;9.60;66.70;;;;;;5092237;28;20235;-77
2021/04/25 06:50:42;;;;;;;30.95;28.73;;;9.80;66.10;;;;;;5092365;28;20298;-76
2021/04/25 06:53:08;;;;;;;32.72;30.30;;;9.80;65.90;;;;;;5092422;28;20286;-77
2021/04/25 06:55:35;;;;;;;33.72;30.40;;;9.80;65.90;;;;;;5091478;28;20392;-76
2021/04/25 06:58:01;;;;;;;35.97;32.60;;;9.90;65.90;;;;;;5092331;28;20790;-77
2021/04/25 07:00:28;;;;;;;31.90;29.60;;;10.00;65.30;;;;;;5091881;28;20305;-77
2021/04/25 07:02:54;;;;;;;31.63;29.27;;;10.10;65.00;;;;;;5092287;28;20199;-77
2021/04/25 07:05:22;;;;;;;33.00;30.33;;;10.10;65.30;;;;;;5091649;28;20199;-77
2021/04/25 07:07:49;;;;;;;31.35;28.90;;;10.10;65.40;;;;;;5091676;28;20206;-77
2021/04/25 07:10:16;;;;;;;31.25;28.95;;;10.10;65.10;;;;;;5091750;28;20307;-78
2021/04/25 07:12:43;;;;;;;33.75;30.63;;;10.00;67.80;;;;;;5091863;28;20305;-77
2021/04/25 07:15:10;;;;;;;33.88;31.02;;;10.10;66.00;;;;;;5091725;28;20227;-78
2021/04/25 07:17:37;;;;;;;32.05;29.73;;;10.30;66.70;;;;;;5091428;28;20308;-77
2021/04/25 07:20:05;;;;;;;32.90;30.40;;;10.60;65.00;;;;;;5091847;28;20221;-78
2021/04/25 07:22:32;;;;;;;32.83;30.23;;;10.70;64.60;;;;;;5091115;28;20279;-77
2021/04/25 07:24:59;;;;;;;31.85;29.55;;;10.80;63.90;;;;;;5094353;28;20680;-77
2021/04/25 07:27:25;;;;;;;33.13;30.53;;;10.90;63.50;;;;;;5094968;28;20606;-78
2021/04/25 07:29:52;;;;;;;32.83;30.43;;;10.90;63.60;;;;;;5094999;28;20983;-77
2021/04/25 07:32:18;;;;;;;35.87;32.27;;;10.90;63.50;;;;;;5095436;28;20568;-77
2021/04/25 07:34:45;;;;;;;36.40;33.30;;;10.90;64.30;;;;;;5095298;28;20449;-78
2021/04/25 07:37:12;;;;;;;34.43;31.83;;;11.10;63.20;;;;;;5094781;28;20460;-78
2021/04/25 07:39:40;;;;;;;35.15;32.08;;;11.20;62.90;;;;;;5095205;28;20484;-77
2021/04/25 07:42:07;;;;;;;33.50;31.10;;;11.50;62.20;;;;;;5095378;28;20243;-77
2021/04/25 07:44:34;;;;;;;32.85;30.35;;;11.40;61.80;;;;;;5095293;28;21009;-77
2021/04/25 07:47:01;;;;;;;35.63;33.03;;;11.30;62.00;;;;;;5094619;28;20348;-77
2021/04/25 07:49:28;;;;;;;33.87;31.27;;;11.40;62.10;;;;;;5095100;28;20464;-77
2021/04/25 07:51:54;;;;;;;33.40;30.90;;;11.60;61.70;;;;;;5094894;28;20477;-77
2021/04/25 07:54:21;;;;;;;34.80;31.67;;;11.70;61.30;;;;;;5095037;28;20532;-77
2021/04/25 07:56:48;;;;;;;34.30;31.70;;;11.80;60.90;;;;;;5094731;28;20488;-77
2021/04/25 07:59:14;;;;;;;42.80;37.60;;;11.80;60.90;;;;;;5095039;28;20586;-77
2021/04/25 08:01:41;;;;;;;35.33;32.43;;;11.70;61.20;;;;;;5094864;28;21053;-77
2021/04/25 08:04:07;;;;;;;35.53;32.33;;;11.60;61.50;;;;;;5097563;28;20453;-77
2021/04/25 08:06:33;;;;;;;34.70;32.10;;;11.50;61.70;;;;;;5094679;28;20456;-77
2021/04/25 08:09:00;;;;;;;35.27;32.43;;;11.70;61.00;;;;;;5094741;28;20563;-77
2021/04/25 08:11:26;;;;;;;38.90;35.83;;;11.70;61.20;;;;;;5094600;28;20480;-78
2021/04/25 08:13:54;;;;;;;37.60;34.70;;;12.00;60.50;;;;;;5094719;28;20461;-77
2021/04/25 08:16:20;;;;;;;37.90;34.50;;;12.10;60.00;;;;;;5094487;28;20484;-77
2021/04/25 08:18:47;;;;;;;37.43;34.57;;;12.10;59.30;;;;;;5094622;28;20682;-77
2021/04/25 08:21:13;;;;;;;36.83;33.83;;;12.10;59.00;;;;;;5094345;28;20858;-77
2021/04/25 08:23:41;;;;;;;39.55;36.08;;;11.80;59.60;;;;;;5093955;28;20461;-77
2021/04/25 08:26:07;;;;;;;37.30;34.22;;;11.60;60.30;;;;;;5094025;28;20200;-77
2021/04/25 08:28:34;;;;;;;38.47;35.22;;;11.70;60.40;;;;;;5094364;28;20196;-77
2021/04/25 08:31:01;;;;;;;35.55;33.00;;;11.80;60.00;;;;;;5094376;28;20223;-77
2021/04/25 08:33:27;;;;;;;39.30;36.20;;;11.80;60.00;;;;;;5094443;28;20199;-77
2021/04/25 08:35:54;;;;;;;35.70;33.00;;;11.90;60.10;;;;;;5093111;28;20539;-77
2021/04/25 08:38:20;;;;;;;36.37;33.37;;;11.70;60.40;;;;;;5094399;28;20450;-77
2021/04/25 08:40:47;;;;;;;36.97;33.77;;;11.70;60.80;;;;;;5094357;28;20469;-77
2021/04/25 08:43:14;;;;;;;36.97;33.85;;;11.90;60.40;;;;;;5094467;28;20532;-77
2021/04/25 08:45:43;;;;;;;36.33;33.60;;;12.20;59.80;;;;;;5093621;28;20231;-76
2021/04/25 08:48:13;;;;;;;35.70;33.10;;;12.30;59.50;;;;;;5093335;28;20468;-78
2021/04/25 08:50:41;;;;;;;34.87;32.10;;;12.20;59.60;;;;;;5094094;28;20564;-77
2021/04/25 08:53:10;;;;;;;36.27;33.20;;;12.10;59.40;;;;;;5093845;28;20515;-77
2021/04/25 08:55:36;;;;;;;36.00;33.10;;;12.30;58.20;;;;;;5093519;28;20532;-76
2021/04/25 08:58:04;;;;;;;35.20;32.60;;;12.30;58.70;;;;;;5093914;28;20507;-77
2021/04/25 09:00:31;;;;;;;35.57;32.60;;;12.30;59.20;;;;;;5093746;28;20857;-77
2021/04/25 09:02:57;;;;;;;43.97;34.90;;;12.30;58.70;;;;;;5093936;28;20495;-77
2021/04/25 09:05:25;;;;;;;35.67;32.87;;;12.20;59.00;;;;;;5093726;28;20501;-77
2021/04/25 09:07:57;;;;;;;36.00;33.30;;;12.30;59.00;;;;;;5093779;28;20527;-77
2021/04/25 09:10:31;;;;;;;36.93;34.13;;;12.50;58.50;;;;;;5093606;28;20484;-77
2021/04/25 09:12:58;;;;;;;34.73;32.03;;;12.60;58.40;;;;;;5093738;28;20483;-77
2021/04/25 09:15:27;;;;;;;36.23;33.27;;;12.80;57.30;;;;;;5093572;28;20536;-76
2021/04/25 09:17:55;;;;;;;34.57;32.07;;;12.80;56.60;;;;;;5093687;28;20537;-77
2021/04/25 09:20:34;;;;;;;36.30;33.57;;;12.70;56.50;;;;;;5093463;28;20509;-77
2021/04/25 09:23:01;;;;;;;33.93;31.40;;;12.80;56.30;;;;;;5093331;28;20449;-77
2021/04/25 09:25:27;;;;;;;35.73;32.63;;;12.80;56.20;;;;;;5093197;28;20530;-76
2021/04/25 09:28:07;;;;;;;33.93;31.43;;;12.80;56.40;;;;;;5092968;28;21028;-78
2021/04/25 09:30:34;;;;;;;33.97;31.37;;;12.90;56.10;;;;;;5093387;28;20571;-77
2021/04/25 09:33:01;;;;;;;33.60;31.13;;;12.90;56.10;;;;;;5093280;28;20826;-77
2021/04/25 09:35:29;;;;;;;35.47;32.77;;;13.10;56.50;;;;;;5092969;28;20460;-77
2021/04/25 09:37:56;;;;;;;34.20;31.67;;;13.10;56.40;;;;;;5093378;28;20576;-77
2021/04/25 09:40:25;;;;;;;32.37;30.07;;;13.10;55.80;;;;;;5093171;28;20468;-78
2021/04/25 09:43:00;;;;;;;32.70;30.10;;;13.20;55.60;;;;;;5093331;28;20441;-77
2021/04/25 09:45:29;;;;;;;32.40;29.80;;;13.30;54.50;;;;;;5093011;28;20461;-77
2021/04/25 09:47:56;;;;;;;32.93;30.63;;;13.50;54.50;;;;;;5092818;28;20464;-77
2021/04/25 09:50:24;;;;;;;33.67;30.93;;;13.50;54.80;;;;;;5093352;28;20469;-77
2021/04/25 09:52:51;;;;;;;31.40;29.40;;;13.70;54.50;;;;;;5097073;28;20563;-78
2021/04/25 09:55:27;;;;;;;31.27;29.10;;;13.70;53.70;;;;;;5096417;28;20873;-77
2021/04/25 09:57:57;;;;;;;32.13;29.73;;;13.80;52.70;;;;;;5093148;28;20506;-77
2021/04/25 10:00:37;;;;;;;33.07;30.27;;;13.80;52.50;;;;;;5092720;28;20476;-78
2021/04/25 10:03:07;;;;;;;33.60;31.23;;;13.80;53.70;;;;;;5092862;28;20476;-79
2021/04/25 10:05:34;;;;;;;30.73;28.43;;;14.00;52.70;;;;;;5092383;28;20858;-77
2021/04/25 10:08:00;;;;;;;31.40;29.20;;;13.90;51.80;;;;;;5092859;28;20502;-77
2021/04/25 10:10:28;;;;;;;30.47;28.47;;;14.00;51.60;;;;;;5092689;28;20556;-78
2021/04/25 10:12:55;;;;;;;31.10;29.00;;;14.00;50.80;;;;;;5092460;28;21054;-77
2021/04/25 10:15:23;;;;;;;33.10;30.40;;;13.80;51.10;;;;;;5092401;28;20541;-78
2021/04/25 10:17:51;;;;;;;31.63;29.40;;;13.80;51.60;;;;;;5092478;28;20461;-78
2021/04/25 10:20:19;;;;;;;32.03;29.83;;;13.80;52.40;;;;;;5092639;28;20469;-78
2021/04/25 10:22:47;;;;;;;32.83;30.50;;;13.70;52.90;;;;;;5091982;28;20479;-78
2021/04/25 10:25:17;;;;;;;31.47;29.40;;;13.80;52.40;;;;;;5092561;28;20932;-77
2021/04/25 10:27:56;;;;;;;30.53;28.50;;;13.80;52.20;;;;;;5091841;28;20458;-78
2021/04/25 10:30:29;;;;;;;33.80;30.93;;;13.80;52.30;;;;;;5092455;28;20552;-78
2021/04/25 10:32:58;;;;;;;31.67;29.47;;;13.80;52.70;;;;;;5092225;28;20484;-78
2021/04/25 10:35:28;;;;;;;31.27;28.87;;;14.00;51.80;;;;;;5092198;28;20461;-78
2021/04/25 10:37:54;;;;;;;31.50;29.00;;;14.20;51.10;;;;;;5092252;28;20522;-78
2021/04/25 10:40:29;;;;;;;31.67;29.57;;;14.20;50.70;;;;;;5092274;28;20473;-78
2021/04/25 10:43:02;;;;;;;32.83;30.43;;;14.10;51.00;;;;;;5092339;28;20787;-78
2021/04/25 10:45:30;;;;;;;33.00;30.80;;;14.20;51.20;;;;;;5091751;28;20488;-78
2021/04/25 10:48:25;;;;;;;31.27;29.17;;;14.20;51.40;;;;;;5091997;28;20555;-78
2021/04/25 10:50:53;;;;;;;33.30;30.70;;;14.10;51.70;;;;;;5092004;28;20501;-78
2021/04/25 10:53:22;;;;;;;31.07;28.97;;;14.20;52.10;;;;;;5092028;28;20457;-77
2021/04/25 10:55:50;;;;;;;33.17;30.77;;;14.40;51.50;;;;;;5091525;28;20532;-78
2021/04/25 10:58:22;;;;;;;33.40;30.27;;;14.50;51.20;;;;;;5091967;28;20453;-77
2021/04/25 11:00:49;;;;;;;33.90;30.87;;;14.60;50.90;;;;;;5096001;28;20522;-78
2021/04/25 11:03:39;;;;;;;31.53;29.20;;;14.70;50.50;;;;;;5096038;28;20456;-78
2021/04/25 11:06:24;;;;;;;30.33;28.27;;;14.70;49.10;;;;;;5095584;28;20449;-78
2021/04/25 11:08:50;;;;;;;29.37;27.47;;;14.80;47.80;;;;;;5096029;28;20460;-78
2021/04/25 11:11:32;;;;;;;30.53;28.53;;;14.80;48.50;;;;;;5096246;28;20487;-77
2021/04/25 11:14:00;;;;;;;30.37;28.17;;;14.80;48.60;;;;;;5096117;28;20445;-78
2021/04/25 11:16:31;;;;;;;29.93;27.77;;;14.70;48.70;;;;;;5095741;28;20867;-77
2021/04/25 11:19:00;;;;;;;33.50;31.30;;;14.90;48.70;;;;;;5096720;28;20459;-78
2021/04/25 11:21:55;;;;;;;31.03;28.93;;;15.10;48.70;;;;;;5096588;28;20530;-78
2021/04/25 11:24:36;;;;;;;31.73;29.07;;;15.10;48.60;;;;;;5096763;28;20464;-78
2021/04/25 11:27:08;;;;;;;29.47;27.47;;;15.30;48.10;;;;;;5095191;28;20506;-78
2021/04/25 11:30:01;;;;;;;30.20;27.80;;;15.50;47.70;;;;;;5095437;28;20875;-78
2021/04/25 11:32:32;;;;;;;29.67;27.73;;;15.70;47.30;;;;;;5095770;28;20512;-78
2021/04/25 11:35:22;;;;;;;28.47;26.67;;;15.40;47.30;;;;;;5095360;28;20488;-78
2021/04/25 11:37:49;;;;;;;28.73;26.83;;;15.30;45.20;;;;;;5095190;28;20453;-77
2021/04/25 11:40:22;;;;;;;30.20;27.80;;;15.20;45.50;;;;;;5095544;28;20504;-77
2021/04/25 11:42:50;;;;;;;29.13;27.23;;;15.30;44.60;;;;;;5095743;28;20449;-77
2021/04/25 11:45:26;;;;;;;29.70;27.70;;;15.40;45.70;;;;;;5095241;28;20936;-77
2021/04/25 11:47:55;;;;;;;28.60;26.90;;;15.20;46.20;;;;;;5095486;28;20929;-77
2021/04/25 11:50:28;;;;;;;28.83;27.00;;;15.20;45.80;;;;;;5095378;28;20568;-78
2021/04/25 11:52:54;;;;;;;28.70;26.80;;;15.20;46.10;;;;;;5095342;28;20476;-77
2021/04/25 11:55:21;;;;;;;28.97;27.03;;;15.30;44.50;;;;;;5094912;28;20477;-78
2021/04/25 11:57:50;;;;;;;29.27;27.27;;;15.30;44.30;;;;;;5094583;28;20453;-78
2021/04/25 12:00:20;;;;;;;28.17;26.37;;;15.30;44.10;;;;;;5094772;28;20481;-77
2021/04/25 12:03:05;;;;;;;27.60;25.80;;;15.50;42.50;;;;;;5095072;28;20483;-78
2021/04/25 12:05:34;;;;;;;28.23;26.23;;;15.50;42.00;;;;;;5094962;28;20445;-77
2021/04/25 12:08:02;;;;;;;27.50;25.60;;;15.70;41.70;;;;;;5094941;28;20449;-77
2021/04/25 12:10:33;;;;;;;28.10;26.50;;;15.80;41.70;;;;;;5094575;28;21000;-78
2021/04/25 12:13:06;;;;;;;29.17;27.27;;;15.90;42.40;;;;;;5094869;28;20504;-78
2021/04/25 12:15:45;;;;;;;28.87;26.83;;;16.20;42.50;;;;;;5094494;28;20488;-78
2021/04/25 12:18:14;;;;;;;28.27;26.47;;;16.40;41.80;;;;;;5094905;28;20449;-77
2021/04/25 12:20:43;;;;;;;26.73;25.23;;;16.20;41.60;;;;;;5094116;28;20462;-77
2021/04/25 12:23:17;;;;;;;28.27;26.40;;;16.20;41.00;;;;;;5094532;28;20454;-78
2021/04/25 12:25:45;;;;;;;27.73;26.03;;;15.90;39.60;;;;;;5094021;28;20453;-78
2021/04/25 12:28:11;;;;;;;28.30;26.40;;;16.00;40.00;;;;;;5094746;28;20503;-77
2021/04/25 12:30:44;;;;;;;27.97;25.97;;;16.10;40.40;;;;;;5094456;28;20555;-78
2021/04/25 12:33:12;;;;;;;29.63;27.80;;;16.00;40.40;;;;;;5094394;28;20469;-78
2021/04/25 12:35:40;;;;;;;27.20;25.40;;;16.10;40.70;;;;;;5093758;28;20994;-78